sensor_id;sensor_type;location;lat;lon;timestamp;P1;durP1;ratioP1;P2;durP2;ratioP2
5616;SDS011;2830;50.656;7.568;2023-05-07T00:01:21;11.40;;;2.77;;
5616;SDS011;2830;50.656;7.568;2023-05-07T00:03:48;11.30;;;2.80;;
5616;SDS011;2830;50.656;7.568;2023-05-07T00:06:14;10.80;;;2.30;;
5616;SDS011;2830;50.656;7.568;2023-05-07T00:08:41;12.60;;;2.70;;
5616;SDS011;2830;50.656;7.568;2023-05-07T00:11:08;11.83;;;2.47;;
5616;SDS011;2830;50.656;7.568;2023-05-07T00:13:37;12.30;;;2.77;;
5616;SDS011;2830;50.656;7.568;2023-05-07T00:16:03;12.90;;;3.00;;
5616;SDS011;2830;50.656;7.568;2023-05-07T00:18:31;11.57;;;2.60;;
5616;SDS011;2830;50.656;7.568;2023-05-07T00:20:57;11.17;;;3.00;;
5616;SDS011;2830;50.656;7.568;2023-05-07T00:23:24;15.17;;;2.93;;
5616;SDS011;2830;50.656;7.568;2023-05-07T00:25:51;12.83;;;3.00;;
5616;SDS011;2830;50.656;7.568;2023-05-07T00:28:17;14.43;;;3.27;;
5616;SDS011;2830;50.656;7.568;2023-05-07T00:30:44;12.80;;;3.40;;
5616;SDS011;2830;50.656;7.568;2023-05-07T00:33:11;12.87;;;3.87;;
5616;SDS011;2830;50.656;7.568;2023-05-07T00:35:37;15.10;;;2.87;;
5616;SDS011;2830;50.656;7.568;2023-05-07T00:38:04;13.27;;;3.70;;
5616;SDS011;2830;50.656;7.568;2023-05-07T00:40:31;14.03;;;3.40;;
5616;SDS011;2830;50.656;7.568;2023-05-07T00:42:57;19.23;;;4.07;;
5616;SDS011;2830;50.656;7.568;2023-05-07T00:45:27;11.60;;;3.10;;
5616;SDS011;2830;50.656;7.568;2023-05-07T00:47:55;13.17;;;2.90;;
5616;SDS011;2830;50.656;7.568;2023-05-07T00:50:24;14.80;;;3.00;;
5616;SDS011;2830;50.656;7.568;2023-05-07T00:52:52;15.93;;;3.23;;
5616;SDS011;2830;50.656;7.568;2023-05-07T00:55:19;12.40;;;3.43;;
5616;SDS011;2830;50.656;7.568;2023-05-07T00:57:46;12.03;;;3.27;;
5616;SDS011;2830;50.656;7.568;2023-05-07T01:00:13;12.40;;;3.23;;
5616;SDS011;2830;50.656;7.568;2023-05-07T01:02:41;12.63;;;2.93;;
5616;SDS011;2830;50.656;7.568;2023-05-07T01:05:09;13.73;;;5.67;;
5616;SDS011;2830;50.656;7.568;2023-05-07T01:07:39;12.37;;;3.20;;
5616;SDS011;2830;50.656;7.568;2023-05-07T01:10:07;14.60;;;3.63;;
5616;SDS011;2830;50.656;7.568;2023-05-07T01:12:35;14.40;;;3.90;;
5616;SDS011;2830;50.656;7.568;2023-05-07T01:15:04;12.03;;;3.03;;
5616;SDS011;2830;50.656;7.568;2023-05-07T01:17:35;13.10;;;3.37;;
5616;SDS011;2830;50.656;7.568;2023-05-07T01:20:04;12.87;;;3.87;;
5616;SDS011;2830;50.656;7.568;2023-05-07T01:22:34;11.97;;;2.97;;
5616;SDS011;2830;50.656;7.568;2023-05-07T01:25:03;12.80;;;3.20;;
5616;SDS011;2830;50.656;7.568;2023-05-07T01:27:31;12.20;;;3.20;;
5616;SDS011;2830;50.656;7.568;2023-05-07T01:29:59;14.20;;;4.17;;
5616;SDS011;2830;50.656;7.568;2023-05-07T01:32:36;12.37;;;3.60;;
5616;SDS011;2830;50.656;7.568;2023-05-07T01:35:09;11.30;;;3.00;;
5616;SDS011;2830;50.656;7.568;2023-05-07T01:37:39;12.10;;;3.50;;
5616;SDS011;2830;50.656;7.568;2023-05-07T01:40:07;14.17;;;3.40;;
5616;SDS011;2830;50.656;7.568;2023-05-07T01:42:35;15.90;;;3.37;;
5616;SDS011;2830;50.656;7.568;2023-05-07T01:45:01;13.50;;;3.80;;
5616;SDS011;2830;50.656;7.568;2023-05-07T01:47:29;14.30;;;4.40;;
5616;SDS011;2830;50.656;7.568;2023-05-07T01:49:56;15.27;;;4.43;;
5616;SDS011;2830;50.656;7.568;2023-05-07T01:52:24;13.37;;;3.90;;
5616;SDS011;2830;50.656;7.568;2023-05-07T01:54:51;14.93;;;3.80;;
5616;SDS011;2830;50.656;7.568;2023-05-07T01:57:17;14.80;;;4.10;;
5616;SDS011;2830;50.656;7.568;2023-05-07T01:59:44;14.10;;;3.80;;
5616;SDS011;2830;50.656;7.568;2023-05-07T02:02:11;16.60;;;4.73;;
5616;SDS011;2830;50.656;7.568;2023-05-07T02:04:38;13.63;;;3.83;;
5616;SDS011;2830;50.656;7.568;2023-05-07T02:07:04;16.33;;;3.93;;
5616;SDS011;2830;50.656;7.568;2023-05-07T02:09:31;15.13;;;4.40;;
5616;SDS011;2830;50.656;7.568;2023-05-07T02:11:57;15.77;;;4.00;;
5616;SDS011;2830;50.656;7.568;2023-05-07T02:14:24;12.33;;;3.77;;
5616;SDS011;2830;50.656;7.568;2023-05-07T02:16:52;18.33;;;4.80;;
5616;SDS011;2830;50.656;7.568;2023-05-07T02:19:18;16.10;;;4.93;;
5616;SDS011;2830;50.656;7.568;2023-05-07T02:21:47;13.13;;;4.07;;
5616;SDS011;2830;50.656;7.568;2023-05-07T02:24:14;16.87;;;4.50;;
5616;SDS011;2830;50.656;7.568;2023-05-07T02:26:40;18.63;;;4.50;;
5616;SDS011;2830;50.656;7.568;2023-05-07T02:29:07;14.20;;;4.27;;
5616;SDS011;2830;50.656;7.568;2023-05-07T02:31:34;14.87;;;4.87;;
5616;SDS011;2830;50.656;7.568;2023-05-07T02:34:01;20.20;;;4.83;;
5616;SDS011;2830;50.656;7.568;2023-05-07T02:36:27;14.63;;;5.20;;
5616;SDS011;2830;50.656;7.568;2023-05-07T02:38:54;13.80;;;4.60;;
5616;SDS011;2830;50.656;7.568;2023-05-07T02:41:21;12.83;;;3.60;;
5616;SDS011;2830;50.656;7.568;2023-05-07T02:43:48;18.47;;;4.10;;
5616;SDS011;2830;50.656;7.568;2023-05-07T02:46:14;17.10;;;4.33;;
5616;SDS011;2830;50.656;7.568;2023-05-07T02:48:41;13.07;;;3.90;;
5616;SDS011;2830;50.656;7.568;2023-05-07T02:51:09;15.00;;;3.70;;
5616;SDS011;2830;50.656;7.568;2023-05-07T02:53:35;13.47;;;3.80;;
5616;SDS011;2830;50.656;7.568;2023-05-07T02:56:02;16.23;;;4.10;;
5616;SDS011;2830;50.656;7.568;2023-05-07T02:58:29;14.30;;;3.87;;
5616;SDS011;2830;50.656;7.568;2023-05-07T03:00:56;13.30;;;3.80;;
5616;SDS011;2830;50.656;7.568;2023-05-07T03:03:22;14.20;;;4.63;;
5616;SDS011;2830;50.656;7.568;2023-05-07T03:05:49;13.70;;;4.03;;
5616;SDS011;2830;50.656;7.568;2023-05-07T03:08:16;14.90;;;3.33;;
5616;SDS011;2830;50.656;7.568;2023-05-07T03:10:43;12.70;;;3.30;;
5616;SDS011;2830;50.656;7.568;2023-05-07T03:13:09;15.00;;;3.83;;
5616;SDS011;2830;50.656;7.568;2023-05-07T03:15:36;15.43;;;3.53;;
5616;SDS011;2830;50.656;7.568;2023-05-07T03:18:03;13.50;;;3.43;;
5616;SDS011;2830;50.656;7.568;2023-05-07T03:20:30;12.50;;;3.17;;
5616;SDS011;2830;50.656;7.568;2023-05-07T03:22:57;15.27;;;3.47;;
5616;SDS011;2830;50.656;7.568;2023-05-07T03:25:24;14.20;;;4.07;;
5616;SDS011;2830;50.656;7.568;2023-05-07T03:27:51;15.40;;;5.43;;
5616;SDS011;2830;50.656;7.568;2023-05-07T03:30:18;14.43;;;3.70;;
5616;SDS011;2830;50.656;7.568;2023-05-07T03:32:46;13.03;;;3.20;;
5616;SDS011;2830;50.656;7.568;2023-05-07T03:35:12;13.93;;;3.43;;
5616;SDS011;2830;50.656;7.568;2023-05-07T03:37:39;13.40;;;4.00;;
5616;SDS011;2830;50.656;7.568;2023-05-07T03:40:06;12.77;;;3.30;;
5616;SDS011;2830;50.656;7.568;2023-05-07T03:42:35;15.87;;;3.87;;
5616;SDS011;2830;50.656;7.568;2023-05-07T03:45:02;15.00;;;3.27;;
5616;SDS011;2830;50.656;7.568;2023-05-07T03:47:29;13.13;;;3.00;;
5616;SDS011;2830;50.656;7.568;2023-05-07T03:49:56;12.17;;;3.00;;
5616;SDS011;2830;50.656;7.568;2023-05-07T03:52:23;13.83;;;3.53;;
5616;SDS011;2830;50.656;7.568;2023-05-07T03:54:52;11.37;;;2.80;;
5616;SDS011;2830;50.656;7.568;2023-05-07T03:57:19;12.30;;;3.33;;
5616;SDS011;2830;50.656;7.568;2023-05-07T03:59:46;12.47;;;2.90;;
5616;SDS011;2830;50.656;7.568;2023-05-07T04:02:13;13.43;;;3.87;;
5616;SDS011;2830;50.656;7.568;2023-05-07T04:04:39;13.23;;;3.10;;
5616;SDS011;2830;50.656;7.568;2023-05-07T04:07:06;11.40;;;2.90;;
5616;SDS011;2830;50.656;7.568;2023-05-07T04:09:33;13.33;;;3.83;;
5616;SDS011;2830;50.656;7.568;2023-05-07T04:12:00;12.73;;;3.20;;
5616;SDS011;2830;50.656;7.568;2023-05-07T04:14:27;13.50;;;3.90;;
5616;SDS011;2830;50.656;7.568;2023-05-07T04:16:54;15.57;;;3.67;;
5616;SDS011;2830;50.656;7.568;2023-05-07T04:19:20;12.00;;;3.63;;
5616;SDS011;2830;50.656;7.568;2023-05-07T04:21:47;13.23;;;3.50;;
5616;SDS011;2830;50.656;7.568;2023-05-07T04:24:14;14.03;;;3.20;;
5616;SDS011;2830;50.656;7.568;2023-05-07T04:26:41;16.10;;;3.20;;
5616;SDS011;2830;50.656;7.568;2023-05-07T04:29:08;12.20;;;3.30;;
5616;SDS011;2830;50.656;7.568;2023-05-07T04:31:34;12.50;;;3.40;;
5616;SDS011;2830;50.656;7.568;2023-05-07T04:34:01;14.47;;;3.57;;
5616;SDS011;2830;50.656;7.568;2023-05-07T04:36:28;13.13;;;3.30;;
5616;SDS011;2830;50.656;7.568;2023-05-07T04:38:55;17.03;;;3.77;;
5616;SDS011;2830;50.656;7.568;2023-05-07T04:41:21;15.00;;;3.23;;
5616;SDS011;2830;50.656;7.568;2023-05-07T04:43:48;11.77;;;2.93;;
5616;SDS011;2830;50.656;7.568;2023-05-07T04:46:15;12.70;;;3.40;;
5616;SDS011;2830;50.656;7.568;2023-05-07T04:48:42;13.70;;;3.97;;
5616;SDS011;2830;50.656;7.568;2023-05-07T04:51:08;13.10;;;3.10;;
5616;SDS011;2830;50.656;7.568;2023-05-07T04:53:35;14.87;;;3.60;;
5616;SDS011;2830;50.656;7.568;2023-05-07T04:56:02;14.13;;;3.30;;
5616;SDS011;2830;50.656;7.568;2023-05-07T04:58:28;13.50;;;3.30;;
5616;SDS011;2830;50.656;7.568;2023-05-07T05:00:58;12.03;;;2.80;;
5616;SDS011;2830;50.656;7.568;2023-05-07T05:03:26;11.20;;;2.60;;
5616;SDS011;2830;50.656;7.568;2023-05-07T05:05:53;14.60;;;2.90;;
5616;SDS011;2830;50.656;7.568;2023-05-07T05:08:20;12.40;;;2.77;;
5616;SDS011;2830;50.656;7.568;2023-05-07T05:10:46;11.27;;;2.60;;
5616;SDS011;2830;50.656;7.568;2023-05-07T05:13:14;13.23;;;2.47;;
5616;SDS011;2830;50.656;7.568;2023-05-07T05:15:41;11.57;;;2.90;;
5616;SDS011;2830;50.656;7.568;2023-05-07T05:18:08;18.37;;;2.90;;
5616;SDS011;2830;50.656;7.568;2023-05-07T05:20:35;17.87;;;3.07;;
5616;SDS011;2830;50.656;7.568;2023-05-07T05:23:01;13.50;;;2.90;;
5616;SDS011;2830;50.656;7.568;2023-05-07T05:25:28;12.63;;;2.67;;
5616;SDS011;2830;50.656;7.568;2023-05-07T05:27:55;12.57;;;3.30;;
5616;SDS011;2830;50.656;7.568;2023-05-07T05:30:21;13.00;;;3.83;;
5616;SDS011;2830;50.656;7.568;2023-05-07T05:32:48;12.10;;;3.00;;
5616;SDS011;2830;50.656;7.568;2023-05-07T05:35:15;12.43;;;3.20;;
5616;SDS011;2830;50.656;7.568;2023-05-07T05:37:41;14.13;;;3.37;;
5616;SDS011;2830;50.656;7.568;2023-05-07T05:40:08;13.37;;;3.03;;
5616;SDS011;2830;50.656;7.568;2023-05-07T05:42:35;12.30;;;2.53;;
5616;SDS011;2830;50.656;7.568;2023-05-07T05:45:02;12.30;;;2.97;;
5616;SDS011;2830;50.656;7.568;2023-05-07T05:47:29;16.03;;;3.60;;
5616;SDS011;2830;50.656;7.568;2023-05-07T05:49:56;18.97;;;3.20;;
5616;SDS011;2830;50.656;7.568;2023-05-07T05:52:23;11.17;;;2.40;;
5616;SDS011;2830;50.656;7.568;2023-05-07T05:54:49;11.40;;;2.70;;
5616;SDS011;2830;50.656;7.568;2023-05-07T05:57:16;12.00;;;2.90;;
5616;SDS011;2830;50.656;7.568;2023-05-07T05:59:43;13.43;;;2.90;;
5616;SDS011;2830;50.656;7.568;2023-05-07T06:02:10;13.43;;;2.73;;
5616;SDS011;2830;50.656;7.568;2023-05-07T06:04:36;13.00;;;3.17;;
5616;SDS011;2830;50.656;7.568;2023-05-07T06:07:03;12.13;;;2.47;;
5616;SDS011;2830;50.656;7.568;2023-05-07T06:09:30;15.03;;;3.43;;
5616;SDS011;2830;50.656;7.568;2023-05-07T06:11:56;14.40;;;2.60;;
5616;SDS011;2830;50.656;7.568;2023-05-07T06:14:26;15.23;;;4.73;;
5616;SDS011;2830;50.656;7.568;2023-05-07T06:16:52;14.30;;;4.20;;
5616;SDS011;2830;50.656;7.568;2023-05-07T06:19:19;18.17;;;4.87;;
5616;SDS011;2830;50.656;7.568;2023-05-07T06:21:49;17.20;;;6.73;;
5616;SDS011;2830;50.656;7.568;2023-05-07T06:24:16;16.50;;;4.83;;
5616;SDS011;2830;50.656;7.568;2023-05-07T06:26:43;15.50;;;4.00;;
5616;SDS011;2830;50.656;7.568;2023-05-07T06:29:09;14.37;;;3.23;;
5616;SDS011;2830;50.656;7.568;2023-05-07T06:31:36;18.23;;;3.50;;
5616;SDS011;2830;50.656;7.568;2023-05-07T06:34:02;14.63;;;3.53;;
5616;SDS011;2830;50.656;7.568;2023-05-07T06:36:29;15.33;;;3.23;;
5616;SDS011;2830;50.656;7.568;2023-05-07T06:38:56;17.90;;;3.10;;
5616;SDS011;2830;50.656;7.568;2023-05-07T06:41:22;17.07;;;3.40;;
5616;SDS011;2830;50.656;7.568;2023-05-07T06:43:49;14.97;;;3.40;;
5616;SDS011;2830;50.656;7.568;2023-05-07T06:46:16;17.40;;;4.50;;
5616;SDS011;2830;50.656;7.568;2023-05-07T06:48:42;16.93;;;5.50;;
5616;SDS011;2830;50.656;7.568;2023-05-07T06:51:09;17.80;;;3.63;;
5616;SDS011;2830;50.656;7.568;2023-05-07T06:53:36;13.47;;;2.63;;
5616;SDS011;2830;50.656;7.568;2023-05-07T06:56:02;13.63;;;2.70;;
5616;SDS011;2830;50.656;7.568;2023-05-07T06:58:29;12.90;;;2.40;;
5616;SDS011;2830;50.656;7.568;2023-05-07T07:00:56;12.70;;;2.57;;
5616;SDS011;2830;50.656;7.568;2023-05-07T07:03:22;12.87;;;2.63;;
5616;SDS011;2830;50.656;7.568;2023-05-07T07:05:53;13.10;;;2.30;;
5616;SDS011;2830;50.656;7.568;2023-05-07T07:08:20;12.30;;;2.20;;
5616;SDS011;2830;50.656;7.568;2023-05-07T07:10:48;13.90;;;2.10;;
5616;SDS011;2830;50.656;7.568;2023-05-07T07:13:15;12.73;;;1.83;;
5616;SDS011;2830;50.656;7.568;2023-05-07T07:15:43;12.73;;;3.10;;
5616;SDS011;2830;50.656;7.568;2023-05-07T07:18:09;13.37;;;2.53;;
5616;SDS011;2830;50.656;7.568;2023-05-07T07:20:36;14.33;;;2.30;;
5616;SDS011;2830;50.656;7.568;2023-05-07T07:23:03;11.67;;;1.83;;
5616;SDS011;2830;50.656;7.568;2023-05-07T07:25:30;14.03;;;1.83;;
5616;SDS011;2830;50.656;7.568;2023-05-07T07:27:57;12.70;;;2.23;;
5616;SDS011;2830;50.656;7.568;2023-05-07T07:30:23;12.10;;;2.17;;
5616;SDS011;2830;50.656;7.568;2023-05-07T07:32:50;13.43;;;2.47;;
5616;SDS011;2830;50.656;7.568;2023-05-07T07:35:18;14.50;;;2.73;;
5616;SDS011;2830;50.656;7.568;2023-05-07T07:37:45;13.20;;;1.87;;
5616;SDS011;2830;50.656;7.568;2023-05-07T07:40:13;12.63;;;1.73;;
5616;SDS011;2830;50.656;7.568;2023-05-07T07:42:40;12.60;;;1.63;;
5616;SDS011;2830;50.656;7.568;2023-05-07T07:45:07;12.80;;;2.20;;
5616;SDS011;2830;50.656;7.568;2023-05-07T07:47:34;19.10;;;1.77;;
5616;SDS011;2830;50.656;7.568;2023-05-07T07:50:01;12.93;;;1.77;;
5616;SDS011;2830;50.656;7.568;2023-05-07T07:52:27;13.10;;;2.10;;
5616;SDS011;2830;50.656;7.568;2023-05-07T07:54:54;16.90;;;2.13;;
5616;SDS011;2830;50.656;7.568;2023-05-07T07:57:21;13.53;;;2.00;;
5616;SDS011;2830;50.656;7.568;2023-05-07T07:59:48;12.97;;;1.93;;
5616;SDS011;2830;50.656;7.568;2023-05-07T08:02:15;12.23;;;1.30;;
5616;SDS011;2830;50.656;7.568;2023-05-07T08:04:42;14.10;;;1.73;;
5616;SDS011;2830;50.656;7.568;2023-05-07T08:07:09;12.10;;;1.27;;
5616;SDS011;2830;50.656;7.568;2023-05-07T08:09:37;12.87;;;1.50;;
5616;SDS011;2830;50.656;7.568;2023-05-07T08:12:06;16.33;;;1.90;;
5616;SDS011;2830;50.656;7.568;2023-05-07T08:14:34;16.20;;;1.67;;
5616;SDS011;2830;50.656;7.568;2023-05-07T08:17:02;15.60;;;1.87;;
5616;SDS011;2830;50.656;7.568;2023-05-07T08:19:29;13.93;;;2.17;;
5616;SDS011;2830;50.656;7.568;2023-05-07T08:21:56;12.80;;;1.97;;
5616;SDS011;2830;50.656;7.568;2023-05-07T08:24:22;13.20;;;2.27;;
5616;SDS011;2830;50.656;7.568;2023-05-07T08:26:49;15.03;;;1.57;;
5616;SDS011;2830;50.656;7.568;2023-05-07T08:29:16;12.40;;;1.57;;
5616;SDS011;2830;50.656;7.568;2023-05-07T08:31:42;13.40;;;1.57;;
5616;SDS011;2830;50.656;7.568;2023-05-07T08:34:09;13.00;;;1.90;;
5616;SDS011;2830;50.656;7.568;2023-05-07T08:36:35;16.50;;;1.57;;
5616;SDS011;2830;50.656;7.568;2023-05-07T08:39:02;15.73;;;1.70;;
5616;SDS011;2830;50.656;7.568;2023-05-07T08:41:29;15.07;;;2.33;;
5616;SDS011;2830;50.656;7.568;2023-05-07T08:43:57;14.83;;;1.50;;
5616;SDS011;2830;50.656;7.568;2023-05-07T08:46:26;13.50;;;1.70;;
5616;SDS011;2830;50.656;7.568;2023-05-07T08:48:58;14.53;;;1.90;;
5616;SDS011;2830;50.656;7.568;2023-05-07T08:51:25;14.63;;;1.83;;
5616;SDS011;2830;50.656;7.568;2023-05-07T08:53:53;14.10;;;1.53;;
5616;SDS011;2830;50.656;7.568;2023-05-07T08:56:19;14.50;;;1.43;;
5616;SDS011;2830;50.656;7.568;2023-05-07T08:58:47;14.90;;;1.60;;
5616;SDS011;2830;50.656;7.568;2023-05-07T09:01:15;13.70;;;1.43;;
5616;SDS011;2830;50.656;7.568;2023-05-07T09:03:44;14.40;;;1.60;;
5616;SDS011;2830;50.656;7.568;2023-05-07T09:06:12;16.07;;;1.90;;
5616;SDS011;2830;50.656;7.568;2023-05-07T09:08:39;14.50;;;1.57;;
5616;SDS011;2830;50.656;7.568;2023-05-07T09:11:05;16.00;;;1.60;;
5616;SDS011;2830;50.656;7.568;2023-05-07T09:13:32;15.63;;;1.57;;
5616;SDS011;2830;50.656;7.568;2023-05-07T09:16:01;16.20;;;2.00;;
5616;SDS011;2830;50.656;7.568;2023-05-07T09:18:40;14.83;;;1.83;;
5616;SDS011;2830;50.656;7.568;2023-05-07T09:21:10;14.40;;;1.43;;
5616;SDS011;2830;50.656;7.568;2023-05-07T09:23:38;14.40;;;1.90;;
5616;SDS011;2830;50.656;7.568;2023-05-07T09:26:06;13.87;;;1.40;;
5616;SDS011;2830;50.656;7.568;2023-05-07T09:28:38;16.97;;;1.60;;
5616;SDS011;2830;50.656;7.568;2023-05-07T09:31:06;14.87;;;1.47;;
5616;SDS011;2830;50.656;7.568;2023-05-07T09:33:34;16.33;;;2.43;;
5616;SDS011;2830;50.656;7.568;2023-05-07T09:36:04;15.63;;;1.73;;
5616;SDS011;2830;50.656;7.568;2023-05-07T09:38:37;15.17;;;1.83;;
5616;SDS011;2830;50.656;7.568;2023-05-07T09:41:05;16.00;;;1.93;;
5616;SDS011;2830;50.656;7.568;2023-05-07T09:43:34;15.17;;;1.57;;
5616;SDS011;2830;50.656;7.568;2023-05-07T09:46:08;17.33;;;1.73;;
5616;SDS011;2830;50.656;7.568;2023-05-07T09:48:39;14.13;;;1.40;;
5616;SDS011;2830;50.656;7.568;2023-05-07T09:53:59;14.87;;;1.57;;
5616;SDS011;2830;50.656;7.568;2023-05-07T09:56:29;15.10;;;1.80;;
5616;SDS011;2830;50.656;7.568;2023-05-07T09:58:57;16.70;;;2.27;;
5616;SDS011;2830;50.656;7.568;2023-05-07T10:01:26;14.87;;;1.70;;
5616;SDS011;2830;50.656;7.568;2023-05-07T10:03:54;14.60;;;1.37;;
5616;SDS011;2830;50.656;7.568;2023-05-07T10:06:21;14.40;;;1.60;;
5616;SDS011;2830;50.656;7.568;2023-05-07T10:08:50;14.40;;;2.03;;
5616;SDS011;2830;50.656;7.568;2023-05-07T10:11:19;14.57;;;1.30;;
5616;SDS011;2830;50.656;7.568;2023-05-07T10:13:46;14.17;;;1.40;;
5616;SDS011;2830;50.656;7.568;2023-05-07T10:16:14;15.10;;;1.50;;
5616;SDS011;2830;50.656;7.568;2023-05-07T10:18:41;15.03;;;1.40;;
5616;SDS011;2830;50.656;7.568;2023-05-07T10:21:19;14.83;;;2.07;;
5616;SDS011;2830;50.656;7.568;2023-05-07T10:23:56;15.50;;;1.43;;
5616;SDS011;2830;50.656;7.568;2023-05-07T10:26:24;15.67;;;1.47;;
5616;SDS011;2830;50.656;7.568;2023-05-07T10:28:54;14.80;;;1.20;;
5616;SDS011;2830;50.656;7.568;2023-05-07T10:34:18;15.17;;;1.53;;
5616;SDS011;2830;50.656;7.568;2023-05-07T10:36:49;14.57;;;1.70;;
5616;SDS011;2830;50.656;7.568;2023-05-07T10:39:16;15.17;;;1.67;;
5616;SDS011;2830;50.656;7.568;2023-05-07T10:41:43;15.23;;;1.70;;
5616;SDS011;2830;50.656;7.568;2023-05-07T10:44:10;14.60;;;1.70;;
5616;SDS011;2830;50.656;7.568;2023-05-07T10:46:37;14.60;;;1.30;;
5616;SDS011;2830;50.656;7.568;2023-05-07T10:51:34;17.50;;;3.20;;
5616;SDS011;2830;50.656;7.568;2023-05-07T10:56:38;15.60;;;2.03;;
5616;SDS011;2830;50.656;7.568;2023-05-07T11:01:50;14.43;;;1.30;;
5616;SDS011;2830;50.656;7.568;2023-05-07T11:04:22;17.13;;;1.53;;
5616;SDS011;2830;50.656;7.568;2023-05-07T11:17:30;19.03;;;1.80;;
5616;SDS011;2830;50.656;7.568;2023-05-07T11:20:02;16.23;;;1.63;;
5616;SDS011;2830;50.656;7.568;2023-05-07T11:25:01;15.57;;;1.40;;
5616;SDS011;2830;50.656;7.568;2023-05-07T11:27:28;15.40;;;1.30;;
5616;SDS011;2830;50.656;7.568;2023-05-07T11:29:56;15.33;;;2.07;;
5616;SDS011;2830;50.656;7.568;2023-05-07T11:32:31;16.00;;;1.80;;
5616;SDS011;2830;50.656;7.568;2023-05-07T11:34:59;16.20;;;1.70;;
5616;SDS011;2830;50.656;7.568;2023-05-07T11:37:28;15.50;;;1.60;;
5616;SDS011;2830;50.656;7.568;2023-05-07T11:40:06;16.47;;;1.80;;
5616;SDS011;2830;50.656;7.568;2023-05-07T11:42:35;16.60;;;1.40;;
5616;SDS011;2830;50.656;7.568;2023-05-07T11:45:06;14.90;;;1.60;;
5616;SDS011;2830;50.656;7.568;2023-05-07T11:47:33;15.70;;;1.80;;
5616;SDS011;2830;50.656;7.568;2023-05-07T11:50:04;15.77;;;1.63;;
5616;SDS011;2830;50.656;7.568;2023-05-07T11:52:34;16.03;;;2.33;;
5616;SDS011;2830;50.656;7.568;2023-05-07T11:55:01;13.73;;;1.20;;
5616;SDS011;2830;50.656;7.568;2023-05-07T11:57:30;15.63;;;1.40;;
5616;SDS011;2830;50.656;7.568;2023-05-07T11:59:59;14.63;;;1.70;;
5616;SDS011;2830;50.656;7.568;2023-05-07T12:02:28;14.63;;;1.60;;
5616;SDS011;2830;50.656;7.568;2023-05-07T12:04:55;17.00;;;2.37;;
5616;SDS011;2830;50.656;7.568;2023-05-07T12:07:22;16.63;;;1.60;;
5616;SDS011;2830;50.656;7.568;2023-05-07T12:09:50;15.47;;;2.00;;
5616;SDS011;2830;50.656;7.568;2023-05-07T12:12:16;15.90;;;2.00;;
5616;SDS011;2830;50.656;7.568;2023-05-07T12:14:44;15.10;;;1.60;;
5616;SDS011;2830;50.656;7.568;2023-05-07T12:17:12;15.53;;;2.10;;
5616;SDS011;2830;50.656;7.568;2023-05-07T12:19:41;20.10;;;1.80;;
5616;SDS011;2830;50.656;7.568;2023-05-07T12:22:09;15.60;;;1.70;;
5616;SDS011;2830;50.656;7.568;2023-05-07T12:24:46;15.00;;;1.70;;
5616;SDS011;2830;50.656;7.568;2023-05-07T12:27:15;15.90;;;1.90;;
5616;SDS011;2830;50.656;7.568;2023-05-07T12:29:49;15.60;;;1.63;;
5616;SDS011;2830;50.656;7.568;2023-05-07T12:32:17;16.87;;;1.90;;
5616;SDS011;2830;50.656;7.568;2023-05-07T12:34:45;14.40;;;1.77;;
5616;SDS011;2830;50.656;7.568;2023-05-07T12:37:15;16.00;;;1.73;;
5616;SDS011;2830;50.656;7.568;2023-05-07T12:39:49;18.87;;;2.10;;
5616;SDS011;2830;50.656;7.568;2023-05-07T12:42:32;15.40;;;1.90;;
5616;SDS011;2830;50.656;7.568;2023-05-07T12:45:15;14.37;;;1.97;;
5616;SDS011;2830;50.656;7.568;2023-05-07T12:47:43;14.70;;;1.40;;
5616;SDS011;2830;50.656;7.568;2023-05-07T12:50:11;19.43;;;1.73;;
5616;SDS011;2830;50.656;7.568;2023-05-07T12:52:40;15.60;;;1.37;;
5616;SDS011;2830;50.656;7.568;2023-05-07T12:55:07;15.63;;;1.20;;
5616;SDS011;2830;50.656;7.568;2023-05-07T12:57:39;15.10;;;1.60;;
5616;SDS011;2830;50.656;7.568;2023-05-07T13:00:14;13.90;;;1.20;;
5616;SDS011;2830;50.656;7.568;2023-05-07T13:02:42;13.80;;;1.20;;
5616;SDS011;2830;50.656;7.568;2023-05-07T13:05:13;14.80;;;1.23;;
5616;SDS011;2830;50.656;7.568;2023-05-07T13:07:40;14.63;;;1.30;;
5616;SDS011;2830;50.656;7.568;2023-05-07T13:10:07;15.63;;;1.37;;
5616;SDS011;2830;50.656;7.568;2023-05-07T13:12:35;14.90;;;1.50;;
5616;SDS011;2830;50.656;7.568;2023-05-07T13:15:01;14.20;;;1.33;;
5616;SDS011;2830;50.656;7.568;2023-05-07T13:17:30;15.60;;;1.73;;
5616;SDS011;2830;50.656;7.568;2023-05-07T13:19:58;16.23;;;1.73;;
5616;SDS011;2830;50.656;7.568;2023-05-07T13:22:24;15.40;;;1.50;;
5616;SDS011;2830;50.656;7.568;2023-05-07T13:24:51;16.80;;;1.97;;
5616;SDS011;2830;50.656;7.568;2023-05-07T13:27:17;14.40;;;1.30;;
5616;SDS011;2830;50.656;7.568;2023-05-07T13:29:45;14.50;;;1.50;;
5616;SDS011;2830;50.656;7.568;2023-05-07T13:32:12;14.47;;;1.50;;
5616;SDS011;2830;50.656;7.568;2023-05-07T13:34:39;14.93;;;1.53;;
5616;SDS011;2830;50.656;7.568;2023-05-07T13:37:06;14.20;;;1.50;;
5616;SDS011;2830;50.656;7.568;2023-05-07T13:39:36;14.43;;;1.30;;
5616;SDS011;2830;50.656;7.568;2023-05-07T13:42:03;16.17;;;1.63;;
5616;SDS011;2830;50.656;7.568;2023-05-07T13:44:30;14.00;;;1.63;;
5616;SDS011;2830;50.656;7.568;2023-05-07T13:46:56;14.17;;;1.70;;
5616;SDS011;2830;50.656;7.568;2023-05-07T13:49:23;15.40;;;2.00;;
5616;SDS011;2830;50.656;7.568;2023-05-07T13:51:50;15.63;;;2.03;;
5616;SDS011;2830;50.656;7.568;2023-05-07T13:54:16;14.60;;;1.43;;
5616;SDS011;2830;50.656;7.568;2023-05-07T13:56:45;20.10;;;2.77;;
5616;SDS011;2830;50.656;7.568;2023-05-07T13:59:12;16.50;;;2.47;;
5616;SDS011;2830;50.656;7.568;2023-05-07T14:01:40;24.43;;;2.97;;
5616;SDS011;2830;50.656;7.568;2023-05-07T14:04:07;17.27;;;2.67;;
5616;SDS011;2830;50.656;7.568;2023-05-07T14:06:38;20.63;;;2.27;;
5616;SDS011;2830;50.656;7.568;2023-05-07T14:09:05;17.07;;;2.37;;
5616;SDS011;2830;50.656;7.568;2023-05-07T14:11:31;15.60;;;2.40;;
5616;SDS011;2830;50.656;7.568;2023-05-07T14:14:01;15.53;;;2.23;;
5616;SDS011;2830;50.656;7.568;2023-05-07T14:16:27;16.50;;;2.60;;
5616;SDS011;2830;50.656;7.568;2023-05-07T14:18:54;17.10;;;2.40;;
5616;SDS011;2830;50.656;7.568;2023-05-07T14:21:23;17.73;;;2.40;;
5616;SDS011;2830;50.656;7.568;2023-05-07T14:23:50;14.97;;;1.90;;
5616;SDS011;2830;50.656;7.568;2023-05-07T14:26:17;15.30;;;2.30;;
5616;SDS011;2830;50.656;7.568;2023-05-07T14:28:43;15.90;;;2.53;;
5616;SDS011;2830;50.656;7.568;2023-05-07T14:31:12;17.37;;;3.03;;
5616;SDS011;2830;50.656;7.568;2023-05-07T14:33:39;14.60;;;2.77;;
5616;SDS011;2830;50.656;7.568;2023-05-07T14:36:07;14.50;;;3.30;;
5616;SDS011;2830;50.656;7.568;2023-05-07T14:38:35;15.20;;;3.33;;
5616;SDS011;2830;50.656;7.568;2023-05-07T14:41:02;15.40;;;3.30;;
5616;SDS011;2830;50.656;7.568;2023-05-07T14:43:28;15.00;;;2.97;;
5616;SDS011;2830;50.656;7.568;2023-05-07T14:45:55;17.73;;;3.70;;
5616;SDS011;2830;50.656;7.568;2023-05-07T14:48:22;17.70;;;3.90;;
5616;SDS011;2830;50.656;7.568;2023-05-07T14:50:49;15.50;;;4.00;;
5616;SDS011;2830;50.656;7.568;2023-05-07T14:53:16;15.57;;;3.90;;
5616;SDS011;2830;50.656;7.568;2023-05-07T14:55:43;16.70;;;3.27;;
5616;SDS011;2830;50.656;7.568;2023-05-07T14:58:10;16.27;;;4.40;;
5616;SDS011;2830;50.656;7.568;2023-05-07T15:00:37;21.90;;;4.77;;
5616;SDS011;2830;50.656;7.568;2023-05-07T15:03:07;19.37;;;4.53;;
5616;SDS011;2830;50.656;7.568;2023-05-07T15:05:37;19.23;;;5.33;;
5616;SDS011;2830;50.656;7.568;2023-05-07T15:08:04;17.60;;;4.97;;
5616;SDS011;2830;50.656;7.568;2023-05-07T15:10:34;17.77;;;5.50;;
5616;SDS011;2830;50.656;7.568;2023-05-07T15:13:07;17.43;;;5.50;;
5616;SDS011;2830;50.656;7.568;2023-05-07T15:15:39;17.43;;;5.30;;
5616;SDS011;2830;50.656;7.568;2023-05-07T15:18:05;19.43;;;6.10;;
5616;SDS011;2830;50.656;7.568;2023-05-07T15:20:32;17.27;;;5.20;;
5616;SDS011;2830;50.656;7.568;2023-05-07T15:22:59;17.33;;;5.40;;
5616;SDS011;2830;50.656;7.568;2023-05-07T15:25:26;16.57;;;5.80;;
5616;SDS011;2830;50.656;7.568;2023-05-07T15:27:52;17.40;;;5.17;;
5616;SDS011;2830;50.656;7.568;2023-05-07T15:30:19;19.40;;;6.80;;